WLW6970 LEIG-LEIG
Flight info
| Callsign | WLW6970 |
|---|---|
| Flight time | 0h 15m |
| Altitude | 3000 |
| Route | VFR |
| Aircraft | C172/L-SDFGIRWYZ/S |
Departure
| Time | 2026-05-04 17:46 |
|---|---|
| Airport | Igualada/Odena Airfield (LEIG) |
Arrival
| Time | 2026-05-04 18:02 |
|---|---|
| Airport | Igualada/Odena Airfield (LEIG) |
| Time | Latitude | Longitude | Altitude | Speed | Heading |
|---|---|---|---|---|---|
| 2026-05-04 17:37 | 41.58631 | 1.65264 | 1089 ft | 0 kts | 251° |
| 2026-05-04 17:43 | 41.58635 | 1.65244 | 1089 ft | 2 kts | 276° |
| 2026-05-04 17:43 | 41.58636 | 1.65239 | 1089 ft | 2 kts | 287° |
| 2026-05-04 17:43 | 41.58669 | 1.65217 | 1089 ft | 6 kts | 336° |
| 2026-05-04 17:43 | 41.58725 | 1.65185 | 1089 ft | 13 kts | 344° |
| 2026-05-04 17:44 | 41.58739 | 1.65181 | 1089 ft | 0 kts | 344° |
| 2026-05-04 17:44 | 41.58751 | 1.65172 | 1089 ft | 5 kts | 328° |
| 2026-05-04 17:44 | 41.58801 | 1.65142 | 1089 ft | 3 kts | 320° |
| 2026-05-04 17:44 | 41.58821 | 1.65119 | 1089 ft | 8 kts | 317° |
| 2026-05-04 17:45 | 41.58816 | 1.65075 | 1089 ft | 4 kts | 158° |
| 2026-05-04 17:45 | 41.58740 | 1.65115 | 1089 ft | 36 kts | 161° |
| 2026-05-04 17:45 | 41.58360 | 1.65307 | 1113 ft | 71 kts | 158° |
| 2026-05-04 17:45 | 41.57943 | 1.65495 | 1335 ft | 62 kts | 161° |
| 2026-05-04 17:46 | 41.57542 | 1.65652 | 1507 ft | 60 kts | 156° |
| 2026-05-04 17:46 | 41.57075 | 1.65808 | 1540 ft | 80 kts | 172° |
| 2026-05-04 17:46 | 41.56536 | 1.65910 | 1732 ft | 80 kts | 172° |
| 2026-05-04 17:46 | 41.56016 | 1.66152 | 1923 ft | 79 kts | 153° |
| 2026-05-04 17:47 | 41.55559 | 1.66588 | 2051 ft | 86 kts | 126° |
| 2026-05-04 17:47 | 41.55474 | 1.67420 | 2257 ft | 79 kts | 90° |
| 2026-05-04 17:47 | 41.55701 | 1.68160 | 2271 ft | 98 kts | 42° |
| 2026-05-04 17:47 | 41.56322 | 1.68343 | 2405 ft | 93 kts | 342° |
| 2026-05-04 17:48 | 41.56940 | 1.68135 | 2539 ft | 94 kts | 342° |
| 2026-05-04 17:48 | 41.57610 | 1.68023 | 2686 ft | 94 kts | 347° |
| 2026-05-04 17:48 | 41.58270 | 1.67945 | 2811 ft | 95 kts | 347° |
| 2026-05-04 17:48 | 41.58917 | 1.67805 | 2945 ft | 93 kts | 342° |
| 2026-05-04 17:49 | 41.59569 | 1.67662 | 3060 ft | 93 kts | 342° |
| 2026-05-04 17:49 | 41.60205 | 1.67512 | 3155 ft | 96 kts | 341° |
| 2026-05-04 17:49 | 41.60918 | 1.67548 | 3172 ft | 104 kts | 357° |
| 2026-05-04 17:49 | 41.61663 | 1.67619 | 3224 ft | 106 kts | 357° |
| 2026-05-04 17:50 | 41.62430 | 1.67682 | 3268 ft | 108 kts | 354° |
| 2026-05-04 17:50 | 41.63171 | 1.67729 | 3348 ft | 107 kts | 357° |
| 2026-05-04 17:50 | 41.63934 | 1.67772 | 3396 ft | 107 kts | 353° |
| 2026-05-04 17:50 | 41.64656 | 1.67602 | 3437 ft | 104 kts | 333° |
| 2026-05-04 17:51 | 41.65388 | 1.67451 | 3438 ft | 113 kts | 4° |
| 2026-05-04 17:51 | 41.66103 | 1.67985 | 3453 ft | 117 kts | 37° |
| 2026-05-04 17:51 | 41.66853 | 1.68046 | 3288 ft | 112 kts | 315° |
| 2026-05-04 17:51 | 41.67000 | 1.67225 | 3397 ft | 86 kts | 249° |
| 2026-05-04 17:52 | 41.66508 | 1.66734 | 3325 ft | 95 kts | 192° |
| 2026-05-04 17:52 | 41.65858 | 1.66710 | 3378 ft | 89 kts | 188° |
| 2026-05-04 17:52 | 41.65222 | 1.66585 | 3332 ft | 91 kts | 199° |
| 2026-05-04 17:52 | 41.64614 | 1.66293 | 3282 ft | 92 kts | 213° |
| 2026-05-04 17:53 | 41.64173 | 1.65746 | 3206 ft | 81 kts | 235° |
| 2026-05-04 17:53 | 41.63829 | 1.65122 | 3036 ft | 81 kts | 234° |
| 2026-05-04 17:53 | 41.63437 | 1.64608 | 2908 ft | 81 kts | 223° |
| 2026-05-04 17:53 | 41.63008 | 1.64145 | 2803 ft | 79 kts | 223° |
| 2026-05-04 17:54 | 41.62529 | 1.63757 | 2756 ft | 80 kts | 206° |
| 2026-05-04 17:54 | 41.61965 | 1.63573 | 2546 ft | 87 kts | 188° |
| 2026-05-04 17:54 | 41.61354 | 1.63668 | 2288 ft | 92 kts | 168° |
| 2026-05-04 17:54 | 41.60740 | 1.63999 | 2005 ft | 95 kts | 161° |
| 2026-05-04 17:55 | 41.60214 | 1.64320 | 1841 ft | 84 kts | 161° |
| 2026-05-04 17:55 | 41.59662 | 1.64629 | 1540 ft | 86 kts | 160° |
| 2026-05-04 17:55 | 41.59103 | 1.64923 | 1237 ft | 88 kts | 161° |
| 2026-05-04 17:55 | 41.58570 | 1.65200 | 1096 ft | 71 kts | 162° |
| 2026-05-04 17:56 | 41.58172 | 1.65413 | 1089 ft | 66 kts | 157° |
| 2026-05-04 17:56 | 41.57790 | 1.65691 | 1294 ft | 64 kts | 120° |
| 2026-05-04 17:56 | 41.57945 | 1.66176 | 1460 ft | 64 kts | 2° |
| 2026-05-04 17:56 | 41.58467 | 1.66148 | 1508 ft | 80 kts | 349° |
| 2026-05-04 17:57 | 41.59020 | 1.66129 | 1670 ft | 78 kts | 353° |
| 2026-05-04 17:57 | 41.59560 | 1.66094 | 1793 ft | 73 kts | 347° |
| 2026-05-04 17:57 | 41.60077 | 1.65962 | 1796 ft | 72 kts | 330° |
| 2026-05-04 17:57 | 41.60233 | 1.65419 | 1700 ft | 74 kts | 238° |
| 2026-05-04 17:58 | 41.59820 | 1.65044 | 1661 ft | 70 kts | 209° |
| 2026-05-04 17:58 | 41.59327 | 1.64814 | 1473 ft | 77 kts | 183° |
| 2026-05-04 17:58 | 41.58810 | 1.65075 | 1249 ft | 81 kts | 151° |
| 2026-05-04 17:58 | 41.58292 | 1.65352 | 1089 ft | 70 kts | 159° |
| 2026-05-04 17:59 | 41.57864 | 1.65609 | 1198 ft | 73 kts | 144° |
| 2026-05-04 17:59 | 41.57850 | 1.66196 | 1296 ft | 84 kts | 35° |
| 2026-05-04 17:59 | 41.58836 | 1.66386 | 1581 ft | 82 kts | 331° |
| 2026-05-04 18:00 | 41.59360 | 1.66179 | 1721 ft | 81 kts | 342° |
| 2026-05-04 18:00 | 41.59946 | 1.66132 | 1773 ft | 80 kts | 339° |
| 2026-05-04 18:00 | 41.60301 | 1.65655 | 1633 ft | 72 kts | 292° |
| 2026-05-04 18:00 | 41.60336 | 1.65099 | 1598 ft | 53 kts | 223° |
| 2026-05-04 18:01 | 41.59978 | 1.64883 | 1473 ft | 57 kts | 205° |
| 2026-05-04 18:01 | 41.59597 | 1.64712 | 1331 ft | 61 kts | 183° |
| 2026-05-04 18:01 | 41.59192 | 1.64896 | 1211 ft | 60 kts | 163° |
| 2026-05-04 18:02 | 41.58525 | 1.65226 | 1089 ft | 36 kts | 164° |
| 2026-05-04 18:02 | 41.58355 | 1.65308 | 1089 ft | 12 kts | 165° |
| 2026-05-04 18:02 | 41.58281 | 1.65355 | 1089 ft | 15 kts | 160° |
| 2026-05-04 18:02 | 41.58166 | 1.65414 | 1089 ft | 17 kts | 165° |
| 2026-05-04 18:03 | 41.58096 | 1.65435 | 1089 ft | 5 kts | 180° |
| 2026-05-04 18:03 | 41.58085 | 1.65444 | 1089 ft | 4 kts | 110° |
| 2026-05-04 18:03 | 41.58099 | 1.65456 | 1089 ft | 0 kts | 331° |